Tuesday, January 15, 2019, 7:06 PM EST
Back to Local

KHIE, Mt Washington Regional Airport

Location: Jefferson, NH, United States Lat: 44.367
Local Time: 7:06 PM EST ( 0:06 GMT) Lon: -71.55
Time Zone: US/Eastern Elev: 1072 ft

Show me the last for .
Show Decoded

2019-01-15 18:52 METAR KHIE 152352Z AUTO 07004KT 10SM OVC019 M05/M08 A3001 RMK AO2 SLP185
                 T10501078 11044 21056 52001 =
2019-01-15 17:52 METAR KHIE 152252Z AUTO 00000KT 10SM BKN021 OVC050 M05/M07 A3001 RMK AO2 SLP187
                 T10501072 =
2019-01-15 17:43 METAR KHIE 152243Z AUTO 00000KT 10SM SCT020 OVC050 M05/M07 A3001 RMK AO2
                 T10501072 =
2019-01-15 16:52 METAR KHIE 152152Z AUTO 19003KT 10SM OVC018 M04/M08 A3001 RMK AO2 SLP186
                 T10441078 =
2019-01-15 15:52 METAR KHIE 152052Z AUTO 00000KT 10SM OVC017 M04/M07 A3001 RMK AO2 SLP187
                 T10441072 58001 =
2019-01-15 14:52 METAR KHIE 151952Z AUTO 19003KT 10SM OVC015 M04/M08 A3001 RMK AO2 SLP188
                 T10441078 =
2019-01-15 14:42 METAR KHIE 151942Z AUTO 17003KT 10SM OVC015 M04/M08 A3001 RMK AO2 T10441078 =
2019-01-15 13:52 METAR KHIE 151852Z AUTO 19003KT 10SM OVC013 M05/M08 A3001 RMK AO2 SLP187
                 T10501078 =
2019-01-15 12:52 METAR KHIE 151752Z AUTO 00000KT 10SM OVC010 M06/M08 A3001 RMK AO2 SLP187
                 T10561078 11056 21156 58019 =
2019-01-15 12:05 METAR KHIE 151705Z AUTO 00000KT 10SM BKN012 OVC023 M07/M10 A3003 RMK AO2
                 T10721100 =
2019-01-15 11:52 METAR KHIE 151652Z AUTO 00000KT 10SM FEW016 OVC023 M08/M10 A3003 RMK AO2 SLP195
                 T10781100 =
2019-01-15 10:52 METAR KHIE 151552Z AUTO 00000KT 10SM OVC020 M10/M12 A3007 RMK AO2 SLP207
                 T11001122 =
2019-01-15 09:52 METAR KHIE 151452Z AUTO 00000KT 10SM OVC023 M12/M13 A3007 RMK AO2 SLP210
                 T11171133 53007 =
2019-01-15 08:52 METAR KHIE 151352Z AUTO 00000KT 10SM OVC021 M13/M15 A3006 RMK AO2 SLP207
                 T11331150 =
2019-01-15 07:52 METAR KHIE 151252Z AUTO 00000KT 10SM OVC020 M14/M17 A3005 RMK AO2 SLP202
                 T11441167 =
2019-01-15 06:52 METAR KHIE 151152Z AUTO 00000KT 10SM OVC021 M16/M18 A3005 RMK AO2 SLP202
                 T11561178 11156 21194 53000 =
2019-01-15 05:52 METAR KHIE 151052Z AUTO 00000KT 10SM OVC019 M17/M19 A3004 RMK AO2 SLP200
                 T11721194 =
2019-01-15 05:21 METAR KHIE 151021Z AUTO 00000KT 10SM BKN021 BKN025 M19/M21 A3004 RMK AO2
                 T11891211 =
2019-01-15 04:52 METAR KHIE 150952Z AUTO 00000KT 10SM CLR M19/M22 A3005 RMK AO2 SLP203 T11941222
                 =
2019-01-15 03:52 METAR KHIE 150852Z AUTO 00000KT 10SM CLR M19/M22 A3005 RMK AO2 SLP201 T11891217
                 58001 =
2019-01-15 02:52 METAR KHIE 150752Z AUTO 00000KT 10SM CLR M19/M21 A3006 RMK AO2 SLP203 T11891211
                 =
2019-01-15 01:52 METAR KHIE 150652Z AUTO 00000KT 10SM CLR M18/M21 A3005 RMK AO2 SLP202 T11831206
                 =
2019-01-15 00:52 METAR KHIE 150552Z AUTO 00000KT 10SM CLR M17/M19 A3005 RMK AO2 SLP203 I6000
                 T11721194 11117 21172 57008 =
2019-01-14 23:52 METAR KHIE 150452Z AUTO 00000KT 10SM CLR M16/M18 A3006 RMK AO2 SLP206 T11611183
                 410611267 =
2019-01-14 22:52 METAR KHIE 150352Z AUTO 00000KT 10SM CLR M16/M18 A3007 RMK AO2 SLP211 T11611178
                 =
2019-01-14 21:52 METAR KHIE 150252Z AUTO 00000KT 10SM CLR M16/M17 A3008 RMK AO2 SLP215 I1000
                 I3000 T11561167 56008 =
2019-01-14 20:52 METAR KHIE 150152Z AUTO 00000KT 10SM CLR M14/M16 A3008 RMK AO2 SLP217 I1000
                 T11391156 =
2019-01-14 19:52 METAR KHIE 150052Z AUTO 00000KT 10SM CLR M12/M14 A3009 RMK AO2 SLP220 T11221144
                 =

Support USWX by starting your Amazon purchase here.